Time;durP1;ratioP1;P1;durP2;ratioP2;P2;SDS_P1;SDS_P2;PMS_P1;PMS_P2;Temp;Humidity;BMP_temperature;BMP_pressure;BME280_temperature;BME280_humidity;BME280_pressure;Samples;Min_cycle;Max_cycle;Signal;HPM_P1;HPM_P2
2022/08/22 00:02:05;;;;;;;4.20;3.08;;;17.80;90.40;;;;;;613345;234;26613;-69
2022/08/22 00:04:36;;;;;;;3.12;2.83;;;17.80;90.40;;;;;;613418;234;26575;-69
2022/08/22 00:07:11;;;;;;;3.92;2.75;;;17.90;90.10;;;;;;612787;234;26811;-69
2022/08/22 00:09:51;;;;;;;2.90;2.70;;;17.90;90.70;;;;;;612718;234;26653;-73
2022/08/22 00:12:18;;;;;;;3.50;3.20;;;17.90;90.70;;;;;;612893;234;26651;-69
2022/08/22 00:14:49;;;;;;;3.72;2.60;;;17.70;91.10;;;;;;612498;234;26631;-71
2022/08/22 00:17:29;;;;;;;3.90;2.65;;;17.70;91.10;;;;;;612472;234;26569;-72
2022/08/22 00:20:13;;;;;;;3.50;2.50;;;17.60;91.20;;;;;;612544;234;26602;-68
2022/08/22 00:22:46;;;;;;;5.78;2.72;;;17.50;91.10;;;;;;604754;233;26829;-68
2022/08/22 00:25:30;;;;;;;5.07;2.65;;;17.50;91.10;;;;;;612231;234;26760;-68
2022/08/22 00:27:59;;;;;;;4.05;2.20;;;17.50;91.20;;;;;;603313;234;26893;-68
2022/08/22 00:30:26;;;;;;;3.10;2.20;;;17.40;91.80;;;;;;612518;234;26560;-68
2022/08/22 00:32:56;;;;;;;3.90;2.28;;;17.50;91.90;;;;;;612694;234;26599;-68
2022/08/22 00:35:25;;;;;;;4.05;2.47;;;17.40;92.20;;;;;;612280;228;26817;-68
2022/08/22 00:37:56;;;;;;;2.75;2.40;;;17.30;92.60;;;;;;612352;235;26625;-68
2022/08/22 00:40:29;;;;;;;4.15;2.03;;;17.30;92.70;;;;;;611859;235;27267;-68
2022/08/22 00:43:14;;;;;;;2.05;1.95;;;17.20;92.00;;;;;;612404;233;26585;-68
2022/08/22 00:45:58;;;;;;;4.12;2.20;;;17.20;92.30;;;;;;608470;235;26664;-68
2022/08/22 00:48:45;;;;;;;2.53;2.10;;;17.10;92.00;;;;;;604635;234;26630;-68
2022/08/22 00:51:34;;;;;;;4.20;2.33;;;17.10;92.00;;;;;;610788;235;26879;-68
2022/08/22 00:54:20;;;;;;;2.37;2.08;;;17.00;92.10;;;;;;602923;235;26861;-68
2022/08/22 00:56:55;;;;;;;2.28;2.08;;;17.00;92.60;;;;;;602877;234;26628;-68
2022/08/22 00:59:25;;;;;;;2.58;2.37;;;17.00;92.30;;;;;;611780;235;26579;-68
2022/08/22 01:02:12;;;;;;;2.92;2.15;;;17.00;92.50;;;;;;611529;235;26589;-69
2022/08/22 01:04:56;;;;;;;2.05;1.90;;;17.00;92.70;;;;;;608424;235;26921;-68
2022/08/22 01:07:32;;;;;;;2.12;1.85;;;16.90;93.00;;;;;;604669;234;26623;-68
2022/08/22 01:10:14;;;;;;;3.05;2.15;;;16.90;93.70;;;;;;612998;232;26686;-68
2022/08/22 01:12:44;;;;;;;2.70;1.90;;;16.90;93.70;;;;;;605680;233;26636;-68
2022/08/22 01:15:12;;;;;;;2.58;1.98;;;16.90;93.80;;;;;;612904;234;26824;-68
2022/08/22 01:18:13;;;;;;;1.90;1.80;;;16.90;94.40;;;;;;613049;234;26570;-68
2022/08/22 01:20:58;;;;;;;2.55;1.98;;;16.90;94.10;;;;;;598773;234;26640;-68
2022/08/22 01:23:36;;;;;;;2.12;1.95;;;16.80;94.30;;;;;;610597;234;26610;-70
2022/08/22 01:26:13;;;;;;;2.00;1.80;;;16.80;94.30;;;;;;612181;234;26924;-70
2022/08/22 01:29:04;;;;;;;1.65;1.55;;;16.80;94.50;;;;;;611407;234;26786;-70
2022/08/22 01:31:50;;;;;;;2.20;1.73;;;16.70;95.90;;;;;;612234;235;26791;-71
2022/08/22 01:34:27;;;;;;;1.60;1.50;;;16.70;95.90;;;;;;609024;228;26593;-71
2022/08/22 01:37:31;;;;;;;2.08;1.83;;;16.70;95.80;;;;;;612559;234;26778;-71
2022/08/22 01:40:05;;;;;;;1.80;1.70;;;16.70;96.30;;;;;;598547;234;26816;-71
2022/08/22 01:43:07;;;;;;;1.85;1.75;;;16.60;96.10;;;;;;613017;234;26527;-70
2022/08/22 01:45:49;;;;;;;2.20;1.55;;;16.60;96.10;;;;;;606134;235;26840;-71
2022/08/22 01:48:16;;;;;;;1.73;1.62;;;16.60;96.20;;;;;;608877;235;26618;-71
2022/08/22 01:50:45;;;;;;;1.70;1.60;;;16.60;96.30;;;;;;612518;235;26572;-71
2022/08/22 01:53:13;;;;;;;2.62;1.77;;;16.60;96.30;;;;;;612649;235;26580;-71
2022/08/22 01:55:42;;;;;;;2.15;1.70;;;16.60;96.50;;;;;;612295;233;26808;-71
2022/08/22 01:58:13;;;;;;;1.70;1.60;;;16.60;96.60;;;;;;611889;235;26605;-71
2022/08/22 02:00:56;;;;;;;2.10;1.77;;;16.60;96.60;;;;;;612667;235;26568;-70
2022/08/22 02:03:57;;;;;;;1.80;1.70;;;16.60;97.10;;;;;;609082;234;26631;-71
2022/08/22 02:06:36;;;;;;;1.85;1.73;;;16.60;97.20;;;;;;606543;235;26909;-71
2022/08/22 02:09:05;;;;;;;1.80;1.70;;;16.60;97.20;;;;;;612044;229;26595;-71
2022/08/22 02:11:36;;;;;;;1.98;1.73;;;16.60;97.30;;;;;;612229;235;26812;-71
2022/08/22 02:14:19;;;;;;;1.75;1.62;;;16.50;97.40;;;;;;612283;235;26899;-70
2022/08/22 02:16:49;;;;;;;2.00;1.90;;;16.50;97.80;;;;;;609102;234;26627;-70
2022/08/22 02:19:31;;;;;;;1.95;1.85;;;16.50;97.80;;;;;;612226;235;26612;-70
2022/08/22 02:22:01;;;;;;;1.67;1.52;;;16.50;97.70;;;;;;610632;234;26609;-70
2022/08/22 02:24:42;;;;;;;1.55;1.40;;;16.50;97.70;;;;;;613153;234;26582;-70
2022/08/22 02:27:17;;;;;;;1.67;1.58;;;16.60;98.30;;;;;;613371;234;26550;-70
2022/08/22 02:29:47;;;;;;;1.90;1.80;;;16.50;98.10;;;;;;612705;234;26552;-71
2022/08/22 02:32:19;;;;;;;2.78;1.95;;;16.60;98.10;;;;;;612950;233;27119;-71
2022/08/22 02:34:52;;;;;;;1.85;1.75;;;16.50;98.00;;;;;;612461;234;26613;-70
2022/08/22 02:37:20;;;;;;;1.95;1.60;;;16.40;98.50;;;;;;612660;234;26634;-70
2022/08/22 02:40:07;;;;;;;1.45;1.35;;;16.50;98.50;;;;;;611723;234;26692;-71
2022/08/22 02:42:51;;;;;;;1.73;1.62;;;16.40;99.10;;;;;;612428;235;26589;-71
2022/08/22 02:45:37;;;;;;;1.90;1.80;;;16.40;99.30;;;;;;612256;234;26592;-71
2022/08/22 02:48:31;;;;;;;1.48;1.37;;;16.40;99.50;;;;;;612271;234;26560;-70
2022/08/22 02:51:16;;;;;;;1.87;1.65;;;16.40;99.50;;;;;;603316;234;26630;-71
2022/08/22 02:53:51;;;;;;;2.78;1.70;;;16.40;99.40;;;;;;612423;234;26639;-71
2022/08/22 02:56:19;;;;;;;2.05;1.80;;;16.40;99.90;;;;;;612621;234;26563;-71
2022/08/22 02:58:48;;;;;;;1.90;1.62;;;16.40;99.90;;;;;;612399;235;26594;-72
2022/08/22 03:01:34;;;;;;;1.90;1.70;;;16.40;99.90;;;;;;612126;235;27307;-71
2022/08/22 03:04:13;;;;;;;1.48;1.37;;;16.40;99.90;;;;;;611573;234;26652;-71
2022/08/22 03:06:42;;;;;;;1.70;1.42;;;16.40;99.90;;;;;;612504;233;27293;-71
2022/08/22 03:09:29;;;;;;;1.60;1.50;;;16.40;99.90;;;;;;612439;235;26609;-71
2022/08/22 03:11:57;;;;;;;1.60;1.50;;;16.40;99.90;;;;;;612245;235;27304;-71
2022/08/22 03:14:26;;;;;;;1.98;1.83;;;16.50;99.90;;;;;;611906;235;26636;-71
2022/08/22 03:16:57;;;;;;;1.75;1.65;;;16.70;99.90;;;;;;612085;235;26873;-72
2022/08/22 03:19:42;;;;;;;1.85;1.75;;;16.90;99.90;;;;;;611989;235;26646;-71
2022/08/22 03:22:11;;;;;;;2.35;1.70;;;17.00;99.90;;;;;;611168;235;26624;-71
2022/08/22 03:24:39;;;;;;;1.62;1.52;;;17.10;99.90;;;;;;612128;235;26617;-71
2022/08/22 03:27:10;;;;;;;1.60;1.50;;;17.10;99.90;;;;;;611779;235;26638;-71
2022/08/22 03:29:38;;;;;;;1.85;1.50;;;17.20;99.40;;;;;;612256;235;26619;-71
2022/08/22 03:32:06;;;;;;;1.55;1.45;;;17.20;99.50;;;;;;612449;232;26559;-72
2022/08/22 03:34:34;;;;;;;1.50;1.48;;;17.20;99.50;;;;;;613709;234;26632;-69
2022/08/22 03:37:07;;;;;;;1.90;1.67;;;17.20;99.50;;;;;;613403;233;26566;-70
2022/08/22 03:39:53;;;;;;;2.22;1.73;;;17.20;99.80;;;;;;613333;234;26550;-69
2022/08/22 03:42:23;;;;;;;2.12;1.75;;;17.20;99.90;;;;;;612902;234;26822;-69
2022/08/22 03:45:12;;;;;;;3.65;1.60;;;17.20;99.90;;;;;;611652;234;26622;-69
2022/08/22 03:48:06;;;;;;;1.83;1.55;;;17.10;99.90;;;;;;610862;233;26637;-70
2022/08/22 03:50:55;;;;;;;2.60;1.55;;;17.10;99.90;;;;;;612049;234;26784;-69
2022/08/22 03:53:44;;;;;;;2.03;1.92;;;17.00;99.90;;;;;;609647;233;26873;-69
2022/08/22 03:56:20;;;;;;;2.58;1.70;;;17.00;99.90;;;;;;603204;234;26845;-69
2022/08/22 03:59:08;;;;;;;1.98;1.70;;;16.90;99.90;;;;;;612091;232;26828;-69
2022/08/22 04:01:42;;;;;;;1.85;1.75;;;16.70;99.90;;;;;;592981;233;26621;-70
2022/08/22 04:04:40;;;;;;;1.80;1.70;;;16.70;99.90;;;;;;611941;234;26858;-69
2022/08/22 04:07:19;;;;;;;1.62;1.52;;;16.70;99.90;;;;;;609587;235;26596;-69
2022/08/22 04:09:54;;;;;;;2.25;1.92;;;16.80;99.90;;;;;;612554;235;26641;-69
2022/08/22 04:12:23;;;;;;;1.80;1.70;;;16.80;99.90;;;;;;611533;235;26881;-68
2022/08/22 04:14:59;;;;;;;2.47;1.90;;;16.70;99.90;;;;;;610951;235;26667;-68
2022/08/22 04:17:27;;;;;;;1.80;1.70;;;16.80;99.90;;;;;;611798;235;26628;-68
2022/08/22 04:20:11;;;;;;;3.75;2.00;;;16.90;99.90;;;;;;611630;235;26562;-69
2022/08/22 04:22:47;;;;;;;2.20;2.00;;;16.90;99.90;;;;;;601172;234;26643;-69
2022/08/22 04:25:14;;;;;;;2.35;2.05;;;16.90;99.90;;;;;;611935;235;26640;-69
2022/08/22 04:27:43;;;;;;;1.92;1.75;;;16.90;99.90;;;;;;612124;235;27298;-68
2022/08/22 04:30:30;;;;;;;2.30;1.98;;;16.90;99.90;;;;;;611924;235;26836;-70
2022/08/22 04:33:01;;;;;;;2.30;2.10;;;16.90;99.90;;;;;;611133;235;26657;-69
2022/08/22 04:35:34;;;;;;;1.87;1.75;;;16.90;99.90;;;;;;611948;235;26864;-69
2022/08/22 04:38:04;;;;;;;2.37;2.10;;;16.90;99.90;;;;;;612157;235;26610;-69
2022/08/22 04:40:36;;;;;;;2.62;2.15;;;16.90;99.90;;;;;;612434;235;26567;-69
2022/08/22 04:43:05;;;;;;;2.35;2.25;;;16.90;99.90;;;;;;612571;235;26575;-69
2022/08/22 04:45:31;;;;;;;2.45;2.25;;;16.90;99.90;;;;;;613875;234;26560;-69
2022/08/22 04:47:58;;;;;;;2.50;2.30;;;17.00;99.90;;;;;;613253;234;26629;-69
2022/08/22 04:50:26;;;;;;;2.10;1.90;;;17.10;99.90;;;;;;612442;234;26535;-69
2022/08/22 04:53:09;;;;;;;2.12;2.03;;;17.10;99.90;;;;;;612612;234;26813;-69
2022/08/22 04:55:53;;;;;;;2.35;1.95;;;17.10;99.90;;;;;;604872;233;26614;-69
2022/08/22 04:58:24;;;;;;;2.37;2.17;;;17.10;99.90;;;;;;612047;235;26854;-69
2022/08/22 05:01:08;;;;;;;2.25;2.05;;;17.20;99.90;;;;;;612298;234;26845;-69
2022/08/22 05:03:36;;;;;;;2.50;2.30;;;17.20;99.90;;;;;;612484;234;26593;-69
2022/08/22 05:06:04;;;;;;;2.22;2.03;;;17.20;99.90;;;;;;612477;234;26580;-69
2022/08/22 05:08:32;;;;;;;3.33;2.00;;;17.30;99.90;;;;;;612773;233;26822;-69
2022/08/22 05:10:58;;;;;;;2.60;2.12;;;17.30;99.90;;;;;;612460;235;26561;-69
2022/08/22 05:13:27;;;;;;;2.10;1.90;;;17.30;99.90;;;;;;612754;233;26794;-69
2022/08/22 05:15:55;;;;;;;2.35;2.15;;;17.40;99.90;;;;;;612476;235;26572;-69
2022/08/22 05:18:23;;;;;;;2.70;2.10;;;17.50;99.90;;;;;;612662;234;26544;-69
2022/08/22 05:20:51;;;;;;;2.20;2.03;;;17.50;99.90;;;;;;612643;234;26589;-69
2022/08/22 05:23:22;;;;;;;2.97;1.83;;;17.60;99.90;;;;;;612742;235;26586;-69
2022/08/22 05:25:49;;;;;;;2.55;2.35;;;17.60;99.90;;;;;;612293;235;26597;-70
2022/08/22 05:28:28;;;;;;;2.10;1.90;;;17.60;99.90;;;;;;612765;233;26873;-69
2022/08/22 05:30:55;;;;;;;2.10;1.92;;;17.60;99.90;;;;;;612064;235;27240;-69
2022/08/22 05:33:26;;;;;;;3.97;2.70;;;17.70;99.90;;;;;;612463;235;26650;-70
2022/08/22 05:35:57;;;;;;;3.50;2.30;;;17.70;99.90;;;;;;612301;235;26620;-70
2022/08/22 05:38:27;;;;;;;3.22;2.33;;;17.70;99.90;;;;;;612385;235;26659;-70
2022/08/22 05:40:57;;;;;;;2.40;2.03;;;17.80;99.90;;;;;;612405;230;26600;-70
2022/08/22 05:43:24;;;;;;;2.22;2.03;;;17.80;99.90;;;;;;612078;235;26832;-70
2022/08/22 05:45:50;;;;;;;2.67;2.47;;;17.90;99.80;;;;;;612434;233;26580;-69
2022/08/22 05:48:17;;;;;;;2.58;2.37;;;18.00;99.70;;;;;;612477;233;26918;-69
2022/08/22 05:51:01;;;;;;;2.83;2.40;;;18.20;98.80;;;;;;612316;235;26602;-70
2022/08/22 05:53:29;;;;;;;3.37;2.33;;;18.30;98.50;;;;;;612120;235;26615;-69
2022/08/22 05:56:01;;;;;;;2.22;2.10;;;18.50;97.70;;;;;;613252;232;26600;-70
2022/08/22 05:58:33;;;;;;;2.78;2.20;;;18.90;97.20;;;;;;613513;234;26661;-69
2022/08/22 06:01:07;;;;;;;3.37;2.65;;;18.80;97.10;;;;;;612403;234;26729;-69
2022/08/22 06:03:36;;;;;;;2.20;2.05;;;19.00;96.50;;;;;;612699;234;26800;-69
2022/08/22 06:06:03;;;;;;;2.58;2.37;;;19.20;96.60;;;;;;612570;234;26993;-69
2022/08/22 06:08:41;;;;;;;2.70;2.50;;;19.40;96.00;;;;;;611963;234;26854;-69
2022/08/22 06:11:18;;;;;;;2.30;2.08;;;19.60;94.90;;;;;;613464;233;26608;-68
2022/08/22 06:13:47;;;;;;;2.87;1.98;;;19.60;94.90;;;;;;613264;235;26798;-70
2022/08/22 06:16:15;;;;;;;3.67;2.17;;;19.90;94.80;;;;;;612509;234;26536;-68
2022/08/22 06:18:42;;;;;;;2.53;2.20;;;20.00;94.30;;;;;;612969;234;26520;-68
2022/08/22 06:21:12;;;;;;;3.00;1.90;;;20.20;94.00;;;;;;612761;234;26552;-69
2022/08/22 06:23:49;;;;;;;3.85;2.22;;;20.30;93.80;;;;;;612097;235;26583;-69
2022/08/22 06:26:16;;;;;;;2.25;1.90;;;20.40;93.40;;;;;;612593;234;27000;-68
2022/08/22 06:28:43;;;;;;;2.62;2.42;;;20.50;93.30;;;;;;612822;234;26568;-68
2022/08/22 06:31:15;;;;;;;3.58;2.33;;;20.70;93.10;;;;;;612588;234;27322;-69
2022/08/22 06:33:43;;;;;;;3.15;2.53;;;20.90;93.50;;;;;;612450;235;27308;-68
2022/08/22 06:38:53;;;;;;;2.55;2.10;;;21.20;92.20;;;;;;612571;233;27319;-69
2022/08/22 06:41:21;;;;;;;4.53;2.40;;;21.40;91.80;;;;;;612270;233;26616;-70
2022/08/22 06:43:48;;;;;;;6.43;2.42;;;21.40;91.80;;;;;;612558;231;26639;-70
2022/08/22 06:46:15;;;;;;;4.47;2.47;;;21.50;91.40;;;;;;614832;231;26563;-69
2022/08/22 06:48:42;;;;;;;3.92;2.45;;;21.60;91.20;;;;;;614456;231;26801;-70
2022/08/22 06:51:10;;;;;;;2.85;2.37;;;21.60;91.00;;;;;;614018;233;26584;-70
2022/08/22 06:53:39;;;;;;;5.43;2.40;;;21.90;90.10;;;;;;614912;231;26825;-69
2022/08/22 06:56:08;;;;;;;4.53;2.55;;;22.00;89.60;;;;;;614724;230;26605;-70
2022/08/22 06:58:38;;;;;;;2.75;2.12;;;22.10;90.00;;;;;;619577;231;26633;-70
2022/08/22 07:01:06;;;;;;;1.60;1.50;;;22.00;89.80;;;;;;619227;231;26610;-70
2022/08/22 07:03:34;;;;;;;2.30;1.90;;;22.10;89.30;;;;;;617124;231;26580;-71
2022/08/22 07:06:02;;;;;;;3.00;2.08;;;22.40;90.00;;;;;;616000;231;26533;-71
2022/08/22 07:08:29;;;;;;;1.85;1.75;;;22.50;89.80;;;;;;619172;229;26584;-71
2022/08/22 07:11:04;;;;;;;2.20;1.75;;;22.60;88.10;;;;;;619479;230;26611;-71
2022/08/22 07:13:31;;;;;;;2.65;2.10;;;22.60;88.00;;;;;;617293;230;26567;-71
2022/08/22 07:15:59;;;;;;;2.90;1.77;;;22.70;88.10;;;;;;615634;231;26809;-71
2022/08/22 07:18:26;;;;;;;2.33;2.10;;;22.80;85.70;;;;;;615577;231;26853;-71
2022/08/22 07:20:54;;;;;;;4.62;2.17;;;22.90;86.20;;;;;;617728;230;26573;-71
2022/08/22 07:23:31;;;;;;;2.58;2.08;;;23.00;85.20;;;;;;615461;231;26804;-68
2022/08/22 07:26:19;;;;;;;4.60;1.85;;;23.00;82.40;;;;;;616066;230;27186;-68
2022/08/22 07:28:47;;;;;;;3.28;2.08;;;23.10;82.90;;;;;;606330;230;26646;-68
2022/08/22 07:31:17;;;;;;;4.35;2.22;;;23.10;82.90;;;;;;614798;231;26853;-68
2022/08/22 07:33:47;;;;;;;3.42;1.92;;;23.10;80.70;;;;;;617949;230;26566;-68
2022/08/22 07:36:33;;;;;;;2.78;2.12;;;23.20;82.40;;;;;;616465;230;26786;-68
2022/08/22 07:39:03;;;;;;;3.45;1.90;;;23.30;81.20;;;;;;616580;231;26568;-68
2022/08/22 07:41:31;;;;;;;4.12;2.15;;;23.40;80.90;;;;;;615739;230;26978;-71
2022/08/22 07:44:09;;;;;;;4.80;2.40;;;23.40;79.50;;;;;;614247;231;26581;-68
2022/08/22 07:46:37;;;;;;;4.32;1.80;;;23.40;79.90;;;;;;616424;231;26601;-68
2022/08/22 07:49:12;;;;;;;5.37;1.98;;;23.40;78.90;;;;;;615508;228;26564;-67
2022/08/22 07:51:40;;;;;;;4.75;2.10;;;23.40;78.90;;;;;;615332;231;26585;-68
2022/08/22 07:54:07;;;;;;;4.40;1.60;;;23.40;80.20;;;;;;616392;231;26776;-69
2022/08/22 07:56:35;;;;;;;4.43;1.75;;;23.50;79.50;;;;;;615248;231;26559;-65
2022/08/22 07:59:04;;;;;;;6.10;2.30;;;23.50;79.00;;;;;;615368;231;26809;-66
2022/08/22 08:01:32;;;;;;;2.05;1.85;;;23.80;77.20;;;;;;617794;230;26826;-66
2022/08/22 08:04:01;;;;;;;3.08;1.90;;;23.80;77.20;;;;;;614025;233;26808;-66
2022/08/22 08:06:31;;;;;;;4.50;1.83;;;24.10;76.90;;;;;;616248;231;26558;-66
2022/08/22 08:08:57;;;;;;;6.28;1.92;;;24.20;76.00;;;;;;615797;231;26551;-66
2022/08/22 08:11:26;;;;;;;3.65;1.83;;;24.30;76.30;;;;;;618622;231;26640;-66
2022/08/22 08:13:54;;;;;;;3.65;1.80;;;24.40;75.40;;;;;;617191;231;26601;-66
2022/08/22 08:16:21;;;;;;;4.68;1.90;;;24.40;75.40;;;;;;617719;231;26673;-66
2022/08/22 08:18:48;;;;;;;5.93;2.22;;;24.40;75.40;;;;;;617388;231;26600;-66
2022/08/22 08:21:30;;;;;;;3.45;2.00;;;24.60;74.70;;;;;;616950;233;26643;-66
2022/08/22 08:23:58;;;;;;;4.85;1.87;;;24.70;74.00;;;;;;616650;232;26655;-66
2022/08/22 08:26:32;;;;;;;3.42;1.73;;;24.70;73.20;;;;;;616544;233;26567;-66
2022/08/22 08:28:59;;;;;;;2.85;1.40;;;24.80;73.00;;;;;;616706;231;26541;-67
2022/08/22 08:31:36;;;;;;;2.30;1.60;;;24.90;70.70;;;;;;622096;231;26599;-67
2022/08/22 08:34:02;;;;;;;1.90;1.70;;;25.00;70.80;;;;;;622057;231;26621;-66
2022/08/22 08:36:32;;;;;;;5.22;1.52;;;25.00;70.00;;;;;;621719;230;26580;-66
2022/08/22 08:39:19;;;;;;;1.83;1.40;;;25.00;70.10;;;;;;621565;231;26521;-67
2022/08/22 08:42:07;;;;;;;1.55;1.23;;;25.10;71.10;;;;;;621645;231;26553;-67
2022/08/22 08:44:45;;;;;;;2.35;1.42;;;25.20;69.10;;;;;;614601;231;26570;-67
2022/08/22 08:47:33;;;;;;;2.22;1.42;;;25.30;68.60;;;;;;620919;231;26873;-67
2022/08/22 08:50:20;;;;;;;4.57;2.00;;;25.40;69.50;;;;;;618552;231;26542;-67
2022/08/22 08:53:19;;;;;;;2.70;1.80;;;25.50;68.80;;;;;;621577;231;26542;-67
2022/08/22 08:55:48;;;;;;;3.92;1.60;;;25.70;67.80;;;;;;619283;231;26821;-67
2022/08/22 08:58:33;;;;;;;6.05;1.62;;;25.80;66.10;;;;;;620563;231;26605;-67
2022/08/22 09:01:08;;;;;;;2.37;1.42;;;25.80;66.20;;;;;;618245;231;26632;-67
2022/08/22 09:03:40;;;;;;;2.30;1.60;;;25.80;65.90;;;;;;614167;231;27330;-67
2022/08/22 09:06:29;;;;;;;1.83;1.40;;;25.80;63.40;;;;;;612205;231;26644;-68
2022/08/22 09:12:13;;;;;;;2.80;1.58;;;25.80;63.30;;;;;;635177;215;26626;-65
2022/08/22 09:15:11;;;;;;;3.03;1.73;;;25.90;63.70;;;;;;630006;228;26597;-65
2022/08/22 09:17:51;;;;;;;1.70;1.30;;;26.00;60.90;;;;;;616382;225;26569;-66
2022/08/22 09:20:24;;;;;;;3.60;1.45;;;25.90;60.80;;;;;;633322;226;26547;-66
2022/08/22 09:23:11;;;;;;;1.80;1.20;;;25.70;64.50;;;;;;623569;230;26595;-66
2022/08/22 09:25:51;;;;;;;3.00;1.40;;;26.10;61.80;;;;;;613328;231;26620;-66
2022/08/22 09:28:34;;;;;;;1.87;1.35;;;26.10;61.80;;;;;;623444;230;26828;-66
2022/08/22 09:31:17;;;;;;;3.00;1.12;;;26.10;62.70;;;;;;623709;228;26645;-66
2022/08/22 09:33:48;;;;;;;1.75;1.25;;;26.30;61.90;;;;;;617951;232;26578;-66
2022/08/22 09:36:18;;;;;;;3.42;1.50;;;26.30;61.80;;;;;;623911;230;27260;-65
2022/08/22 09:39:01;;;;;;;3.03;1.35;;;26.50;60.90;;;;;;623766;230;26619;-65
2022/08/22 09:41:48;;;;;;;1.35;1.25;;;26.50;60.90;;;;;;618842;232;26589;-65
2022/08/22 09:44:16;;;;;;;2.92;1.40;;;26.50;60.80;;;;;;614260;232;26585;-64
2022/08/22 09:46:51;;;;;;;7.43;1.75;;;26.50;59.70;;;;;;619171;230;26632;-66
2022/08/22 09:49:19;;;;;;;6.62;1.85;;;26.50;59.70;;;;;;623744;230;26773;-66
2022/08/22 09:51:57;;;;;;;6.05;1.58;;;26.70;59.80;;;;;;622662;230;26590;-66
2022/08/22 09:54:29;;;;;;;5.62;1.67;;;26.70;59.70;;;;;;618291;232;26564;-66
2022/08/22 09:57:20;;;;;;;2.80;1.48;;;26.70;59.70;;;;;;621238;230;26633;-66
2022/08/22 09:59:55;;;;;;;2.90;1.52;;;26.90;59.50;;;;;;619852;230;26585;-66
2022/08/22 10:02:23;;;;;;;3.80;1.52;;;27.00;59.60;;;;;;618431;232;26555;-66
2022/08/22 10:05:11;;;;;;;4.18;1.67;;;27.10;58.50;;;;;;623571;230;26571;-65
2022/08/22 10:08:03;;;;;;;2.12;1.40;;;27.00;58.50;;;;;;619376;230;27161;-65
2022/08/22 10:10:51;;;;;;;3.58;1.37;;;27.00;59.50;;;;;;610938;234;26895;-65
2022/08/22 10:13:37;;;;;;;4.57;1.62;;;27.00;58.70;;;;;;617446;230;26571;-65
2022/08/22 10:16:14;;;;;;;4.03;1.87;;;27.00;58.30;;;;;;625478;230;26606;-65
2022/08/22 10:18:46;;;;;;;5.53;1.55;;;27.00;58.50;;;;;;625760;230;26523;-64
2022/08/22 10:21:43;;;;;;;12.40;2.12;;;26.90;58.60;;;;;;625497;230;26619;-66
2022/08/22 10:24:23;;;;;;;1.90;1.12;;;27.10;57.30;;;;;;621752;230;26591;-66
2022/08/22 10:26:50;;;;;;;18.95;4.18;;;27.00;57.60;;;;;;622992;229;26556;-64
2022/08/22 10:29:28;;;;;;;71.68;13.73;;;26.80;58.10;;;;;;622815;230;26590;-64
2022/08/22 10:31:58;;;;;;;41.33;8.05;;;26.70;57.60;;;;;;617165;233;26860;-64
2022/08/22 10:34:24;;;;;;;4.62;1.80;;;26.40;55.70;;;;;;618594;230;26639;-65
2022/08/22 10:37:13;;;;;;;33.25;6.75;;;26.20;58.40;;;;;;621089;229;26853;-65
2022/08/22 10:39:46;;;;;;;13.55;3.42;;;26.20;58.40;;;;;;626458;229;26762;-64
2022/08/22 10:42:15;;;;;;;7.80;2.95;;;26.20;57.00;;;;;;626268;227;26959;-65
2022/08/22 10:44:56;;;;;;;23.23;4.25;;;26.40;55.40;;;;;;625083;230;26568;-65
2022/08/22 10:47:23;;;;;;;9.98;2.72;;;26.40;56.90;;;;;;625202;230;26826;-65
2022/08/22 10:49:51;;;;;;;12.27;3.05;;;26.20;56.30;;;;;;624668;230;26610;-65
2022/08/22 10:52:21;;;;;;;14.60;3.70;;;26.20;56.40;;;;;;624986;230;26580;-64
2022/08/22 10:54:52;;;;;;;3.80;1.83;;;26.40;57.60;;;;;;624415;230;26583;-64
2022/08/22 10:57:31;;;;;;;11.63;2.45;;;26.40;57.00;;;;;;623565;230;26666;-65
2022/08/22 11:00:15;;;;;;;8.75;2.28;;;26.60;58.00;;;;;;623793;230;26673;-64
2022/08/22 11:02:49;;;;;;;5.00;1.90;;;26.80;56.30;;;;;;619555;231;26858;-64
2022/08/22 11:05:34;;;;;;;6.75;2.10;;;27.20;57.10;;;;;;623656;230;26559;-64
2022/08/22 11:08:13;;;;;;;2.33;1.77;;;27.40;56.90;;;;;;622602;231;26582;-64
2022/08/22 11:10:50;;;;;;;3.08;1.65;;;27.40;57.00;;;;;;623460;230;26821;-64
2022/08/22 11:13:32;;;;;;;2.25;1.73;;;27.60;55.80;;;;;;623053;230;26756;-64
2022/08/22 11:16:00;;;;;;;3.17;1.45;;;27.80;55.60;;;;;;623382;230;26533;-64
2022/08/22 11:18:27;;;;;;;2.12;1.20;;;27.80;54.90;;;;;;623001;230;26528;-64
2022/08/22 11:20:58;;;;;;;3.05;1.67;;;27.90;54.80;;;;;;622558;230;26829;-64
2022/08/22 11:23:30;;;;;;;4.10;1.30;;;28.20;55.40;;;;;;623314;230;26568;-64
2022/08/22 11:26:22;;;;;;;1.60;1.30;;;28.20;54.90;;;;;;622572;231;26568;-64
2022/08/22 11:29:09;;;;;;;2.40;1.30;;;28.10;54.20;;;;;;619814;231;26572;-64
2022/08/22 11:31:58;;;;;;;3.15;1.10;;;28.00;54.20;;;;;;622935;230;26592;-64
2022/08/22 11:34:26;;;;;;;2.67;1.25;;;27.90;53.90;;;;;;623540;230;26552;-64
2022/08/22 11:36:55;;;;;;;3.92;1.23;;;27.20;54.80;;;;;;622491;230;26568;-64
2022/08/22 11:39:24;;;;;;;2.72;1.23;;;27.20;54.30;;;;;;622960;230;26789;-64
2022/08/22 11:41:53;;;;;;;1.62;1.15;;;26.80;54.10;;;;;;623162;230;26620;-64
2022/08/22 11:44:21;;;;;;;1.35;1.20;;;26.50;55.50;;;;;;624664;229;26575;-64
2022/08/22 11:46:49;;;;;;;4.25;1.45;;;26.50;53.30;;;;;;624499;230;26567;-64
2022/08/22 11:49:31;;;;;;;2.45;1.20;;;26.50;53.30;;;;;;620420;230;26569;-64
2022/08/22 11:52:20;;;;;;;1.70;1.50;;;26.60;54.20;;;;;;618710;232;26850;-64
2022/08/22 11:55:21;;;;;;;2.53;1.33;;;26.80;54.40;;;;;;620442;230;26584;-64
2022/08/22 11:57:50;;;;;;;3.50;1.40;;;26.80;54.50;;;;;;616264;232;26596;-63
2022/08/22 12:00:31;;;;;;;6.47;1.40;;;27.30;54.40;;;;;;619831;232;26834;-65
2022/08/22 12:03:15;;;;;;;1.85;1.58;;;27.50;54.50;;;;;;620468;229;26532;-65
2022/08/22 12:05:48;;;;;;;1.62;1.25;;;27.70;53.80;;;;;;620399;230;26596;-65
2022/08/22 12:08:39;;;;;;;2.20;1.52;;;28.00;54.20;;;;;;626295;229;26582;-65
2022/08/22 12:11:07;;;;;;;3.12;1.33;;;28.70;53.00;;;;;;625724;229;26603;-65
2022/08/22 12:13:36;;;;;;;1.20;1.15;;;28.60;53.00;;;;;;621281;230;26584;-65
2022/08/22 12:16:18;;;;;;;4.20;1.80;;;28.80;52.20;;;;;;623474;230;26784;-65
2022/08/22 12:18:46;;;;;;;2.28;1.83;;;28.90;51.90;;;;;;620163;229;26572;-65
2022/08/22 12:21:30;;;;;;;7.00;5.18;;;28.90;52.90;;;;;;624522;230;26851;-67
2022/08/22 12:24:18;;;;;;;8.60;5.90;;;29.10;51.80;;;;;;615914;230;26957;-65
2022/08/22 12:26:45;;;;;;;6.85;5.85;;;29.00;52.00;;;;;;624219;230;26838;-65
2022/08/22 12:29:21;;;;;;;9.15;6.82;;;29.00;52.70;;;;;;621689;230;26606;-65
2022/08/22 12:31:55;;;;;;;8.77;7.30;;;29.00;52.20;;;;;;622752;230;26854;-65
2022/08/22 12:34:30;;;;;;;9.43;8.52;;;28.90;52.60;;;;;;623031;230;26610;-65
2022/08/22 12:36:59;;;;;;;12.20;10.98;;;28.60;51.00;;;;;;623448;230;26600;-65
2022/08/22 12:39:35;;;;;;;13.00;11.90;;;28.40;50.70;;;;;;623864;230;26990;-65
2022/08/22 12:42:20;;;;;;;16.73;15.40;;;28.40;51.30;;;;;;625131;229;26620;-65
2022/08/22 12:44:58;;;;;;;21.52;19.62;;;28.70;49.70;;;;;;615634;230;26861;-65
2022/08/22 12:47:58;;;;;;;43.97;40.70;;;28.80;50.20;;;;;;624899;230;26835;-65
2022/08/22 12:50:47;;;;;;;41.47;38.33;;;28.90;49.60;;;;;;624098;230;26879;-65
2022/08/22 12:53:22;;;;;;;58.25;53.58;;;29.20;49.40;;;;;;624418;229;26840;-64
2022/08/22 12:55:58;;;;;;;38.17;34.35;;;29.20;49.20;;;;;;624372;230;26634;-64
2022/08/22 12:58:35;;;;;;;66.00;60.50;;;29.30;50.20;;;;;;624220;230;26626;-64
2022/08/22 13:01:04;;;;;;;95.87;87.00;;;29.70;50.40;;;;;;622908;230;26630;-64
2022/08/22 13:03:33;;;;;;;99.57;89.82;;;29.50;49.30;;;;;;624018;230;26600;-65
2022/08/22 13:06:21;;;;;;;127.70;115.37;;;29.50;49.10;;;;;;625096;228;26983;-65
2022/08/22 13:08:48;;;;;;;145.62;131.75;;;29.30;49.20;;;;;;620732;230;26786;-65
2022/08/22 13:11:15;;;;;;;168.95;152.85;;;29.60;49.40;;;;;;624705;230;26556;-65
2022/08/22 13:13:42;;;;;;;141.55;128.15;;;29.90;50.10;;;;;;625314;229;26861;-63
2022/08/22 13:16:11;;;;;;;216.50;195.80;;;29.60;48.70;;;;;;624835;230;26608;-63
2022/08/22 13:18:45;;;;;;;306.25;278.02;;;29.80;48.20;;;;;;625059;230;26800;-63
2022/08/22 13:21:12;;;;;;;319.08;289.85;;;29.80;48.40;;;;;;625015;229;26587;-64
2022/08/22 13:23:41;;;;;;;332.27;301.80;;;29.80;49.10;;;;;;624629;230;26789;-64
2022/08/22 13:26:09;;;;;;;277.02;251.45;;;29.90;49.10;;;;;;623066;230;26881;-65
2022/08/22 13:28:50;;;;;;;202.50;183.57;;;30.20;50.10;;;;;;624987;230;26622;-65
2022/08/22 13:31:20;;;;;;;148.77;134.55;;;30.20;48.60;;;;;;624377;229;26586;-64